Time;durP1;ratioP1;P1;durP2;ratioP2;P2;SDS_P1;SDS_P2;PMS_P1;PMS_P2;Temp;Humidity;BMP_temperature;BMP_pressure;BME280_temperature;BME280_humidity;BME280_pressure;Samples;Min_cycle;Max_cycle;Signal;HPM_P1;HPM_P2
2023/07/22 00:01:01;;;;;;;;;;;12.10;99.90;;;;;;5111705;27;20058;-66
2023/07/22 00:03:28;;;;;;;19.88;9.40;;;12.10;99.90;;;;;;5118804;28;19969;-64
2023/07/22 00:06:05;;;;;;;17.15;10.30;;;12.10;99.90;;;;;;5119906;27;20494;-65
2023/07/22 00:08:31;;;;;;;14.23;8.63;;;12.10;99.90;;;;;;5115526;27;20476;-64
2023/07/22 00:10:56;;;;;;;;;;;12.10;99.90;;;;;;5119774;28;20039;-65
2023/07/22 00:13:22;;;;;;;13.45;8.55;;;12.10;99.90;;;;;;5120628;28;20267;-66
2023/07/22 00:15:48;;;;;;;15.73;9.65;;;12.00;99.90;;;;;;5121202;27;20051;-65
2023/07/22 00:18:13;;;;;;;;;;;11.90;99.90;;;;;;5108688;28;20047;-66
2023/07/22 00:20:39;;;;;;;13.38;8.88;;;12.00;99.90;;;;;;5107021;28;19923;-65
2023/07/22 00:23:04;;;;;;;;;;;12.00;99.90;;;;;;5104415;28;20039;-67
2023/07/22 00:25:30;;;;;;;14.65;8.50;;;11.90;99.90;;;;;;5107416;28;19974;-65
2023/07/22 00:27:57;;;;;;;;;;;11.90;99.90;;;;;;5103127;27;20413;-66
2023/07/22 00:30:22;;;;;;;14.43;8.47;;;11.90;99.90;;;;;;5097000;28;19959;-66
2023/07/22 00:32:48;;;;;;;;;;;11.80;99.90;;;;;;5098007;28;20109;-67
2023/07/22 00:35:13;;;;;;;15.30;8.73;;;11.80;99.90;;;;;;5106633;28;19972;-64
2023/07/22 00:37:39;;;;;;;;;;;11.80;99.90;;;;;;5095149;28;20020;-65
2023/07/22 00:40:06;;;;;;;14.20;8.85;;;11.80;99.90;;;;;;5100649;28;19927;-65
2023/07/22 00:42:32;;;;;;;14.82;9.20;;;11.80;99.90;;;;;;5103753;28;20075;-66
2023/07/22 00:44:58;;;;;;;;;;;11.70;99.90;;;;;;5107486;28;20128;-68
2023/07/22 00:47:23;;;;;;;17.92;9.10;;;11.70;99.90;;;;;;5103099;28;19923;-69
2023/07/22 00:49:49;;;;;;;;;;;11.70;99.90;;;;;;5102471;28;20118;-66
2023/07/22 00:52:16;;;;;;;28.25;9.50;;;11.60;99.90;;;;;;5105010;28;19989;-68
2023/07/22 00:54:42;;;;;;;15.77;9.10;;;11.50;99.90;;;;;;5105883;28;20071;-64
2023/07/22 00:57:08;;;;;;;;;;;11.60;99.90;;;;;;5106383;27;20051;-65
2023/07/22 00:59:34;;;;;;;12.97;8.27;;;11.60;99.90;;;;;;5093856;27;19916;-66
2023/07/22 01:02:00;;;;;;;19.08;9.52;;;11.60;99.90;;;;;;5103440;28;20511;-66
2023/07/22 01:04:26;;;;;;;;;;;11.60;99.90;;;;;;5105895;28;20149;-65
2023/07/22 01:06:55;;;;;;;12.90;8.43;;;11.40;99.90;;;;;;5103613;28;20390;-69
2023/07/22 01:09:20;;;;;;;17.95;9.07;;;11.30;99.90;;;;;;5103176;28;20402;-67
2023/07/22 01:11:46;;;;;;;;;;;11.30;99.90;;;;;;5099809;28;20039;-66
2023/07/22 01:14:12;;;;;;;18.83;8.70;;;11.20;99.90;;;;;;5100652;28;19926;-70
2023/07/22 01:16:38;;;;;;;;;;;11.20;99.90;;;;;;5105338;28;20046;-68
2023/07/22 01:19:05;;;;;;;17.25;8.43;;;11.10;99.90;;;;;;5093033;28;20413;-67
2023/07/22 01:21:32;;;;;;;15.65;8.23;;;11.10;99.90;;;;;;5102506;28;20045;-65
2023/07/22 01:23:58;;;;;;;15.23;8.93;;;11.10;99.90;;;;;;5102563;28;20035;-65
2023/07/22 01:26:24;;;;;;;15.77;8.55;;;11.10;99.90;;;;;;5105995;28;20524;-65
2023/07/22 01:28:49;;;;;;;;;;;11.10;99.90;;;;;;5102563;28;20123;-65
2023/07/22 01:31:15;;;;;;;19.48;8.45;;;11.10;99.90;;;;;;5097681;28;19920;-67
2023/07/22 01:33:40;;;;;;;;;;;11.10;99.90;;;;;;5105801;28;20633;-65
2023/07/22 01:36:07;;;;;;;13.73;7.90;;;11.10;99.90;;;;;;5105615;28;19926;-65
2023/07/22 01:38:34;;;;;;;14.88;7.38;;;11.20;99.90;;;;;;5100646;28;20164;-66
2023/07/22 01:40:59;;;;;;;15.18;8.43;;;11.20;99.90;;;;;;5100868;28;20114;-65
2023/07/22 01:43:25;;;;;;;;;;;11.20;99.90;;;;;;5105231;28;20110;-67
2023/07/22 01:45:51;;;;;;;12.32;8.10;;;11.20;99.90;;;;;;5105587;28;19998;-66
2023/07/22 01:48:16;;;;;;;;;;;11.20;99.90;;;;;;5105196;28;20039;-65
2023/07/22 01:50:42;;;;;;;11.82;7.15;;;11.10;99.90;;;;;;5088271;28;19922;-65
2023/07/22 01:53:07;;;;;;;;;;;11.10;99.90;;;;;;5085474;28;20543;-64
2023/07/22 01:55:33;;;;;;;15.65;7.65;;;11.10;99.90;;;;;;5105994;28;19922;-65
2023/07/22 01:57:58;;;;;;;;;;;11.10;99.90;;;;;;5101185;27;20028;-64
2023/07/22 02:00:24;;;;;;;17.50;8.55;;;11.10;99.90;;;;;;5103902;28;20402;-66
2023/07/22 02:02:50;;;;;;;;;;;11.10;99.90;;;;;;5105768;28;20067;-66
2023/07/22 02:05:15;;;;;;;12.60;7.82;;;11.10;99.90;;;;;;5102178;28;20561;-65
2023/07/22 02:07:41;;;;;;;15.27;9.10;;;11.10;99.90;;;;;;5097479;28;20038;-65
2023/07/22 02:10:08;;;;;;;13.30;8.15;;;11.10;99.90;;;;;;5097209;28;20073;-65
2023/07/22 02:12:34;;;;;;;15.20;8.48;;;11.10;99.90;;;;;;5104331;28;20047;-66
2023/07/22 02:14:59;;;;;;;;;;;11.10;99.90;;;;;;5104770;28;20040;-66
2023/07/22 02:17:25;;;;;;;14.70;8.48;;;11.20;99.90;;;;;;5105065;28;19919;-65
2023/07/22 02:19:51;;;;;;;16.95;8.73;;;11.10;99.90;;;;;;5103027;28;20062;-64
2023/07/22 02:22:17;;;;;;;18.33;9.45;;;11.10;99.90;;;;;;5104641;28;20128;-66
2023/07/22 02:24:43;;;;;;;12.93;8.07;;;11.10;99.90;;;;;;5104679;28;20051;-65
2023/07/22 02:27:08;;;;;;;;;;;11.10;99.90;;;;;;5104205;27;20048;-63
2023/07/22 02:29:34;;;;;;;19.25;10.25;;;11.10;99.90;;;;;;5099742;28;19930;-70
2023/07/22 02:32:00;;;;;;;;;;;11.00;99.90;;;;;;5095047;28;20054;-65
2023/07/22 02:34:25;;;;;;;14.63;8.60;;;11.00;99.90;;;;;;5084773;27;19923;-65
2023/07/22 02:36:51;;;;;;;;;;;11.10;99.90;;;;;;5103980;28;20043;-66
2023/07/22 02:39:16;;;;;;;22.13;10.82;;;11.00;99.90;;;;;;5103531;28;19920;-65
2023/07/22 02:41:42;;;;;;;;;;;11.00;99.90;;;;;;5099953;28;20487;-65
2023/07/22 02:44:08;;;;;;;23.67;11.93;;;11.10;99.90;;;;;;5093223;28;19961;-64
2023/07/22 02:46:33;;;;;;;;;;;11.10;99.90;;;;;;5105072;28;20718;-64
2023/07/22 02:48:59;;;;;;;17.25;9.50;;;11.10;99.90;;;;;;5101715;28;20388;-65
2023/07/22 02:51:24;;;;;;;;;;;11.00;99.90;;;;;;5097812;28;20460;-64
2023/07/22 02:53:50;;;;;;;20.75;10.73;;;11.00;99.90;;;;;;5104756;28;19916;-65
2023/07/22 02:56:16;;;;;;;;;;;11.00;99.90;;;;;;5098944;28;20043;-65
2023/07/22 02:58:41;;;;;;;21.73;10.80;;;11.00;99.90;;;;;;5101851;28;19915;-66
2023/07/22 03:01:08;;;;;;;;;;;11.00;99.90;;;;;;5104157;28;20039;-65
2023/07/22 03:03:34;;;;;;;22.48;12.27;;;11.00;99.90;;;;;;5104519;28;19915;-65
2023/07/22 03:06:01;;;;;;;22.30;12.25;;;10.90;99.90;;;;;;5104684;28;20060;-65
2023/07/22 03:08:27;;;;;;;19.50;10.05;;;10.90;99.90;;;;;;5101062;28;20059;-64
2023/07/22 03:10:52;;;;;;;22.17;10.77;;;11.00;99.90;;;;;;5100223;28;20047;-64
2023/07/22 03:13:18;;;;;;;;;;;10.80;99.90;;;;;;5103888;28;20048;-65
2023/07/22 03:15:56;;;;;;;20.83;10.52;;;10.90;99.90;;;;;;5104707;28;19919;-65
2023/07/22 03:18:25;;;;;;;23.17;10.45;;;10.80;99.90;;;;;;5087636;28;20052;-65
2023/07/22 03:20:51;;;;;;;18.88;10.35;;;10.80;99.90;;;;;;5103164;28;20075;-66
2023/07/22 03:23:18;;;;;;;17.23;9.68;;;10.80;99.90;;;;;;5105251;28;20054;-64
2023/07/22 03:25:43;;;;;;;;;;;10.90;99.90;;;;;;5103993;28;20130;-64
2023/07/22 03:28:09;;;;;;;17.98;9.00;;;10.80;99.90;;;;;;5103235;28;19919;-64
2023/07/22 03:30:34;;;;;;;;;;;10.80;99.90;;;;;;5101903;28;20036;-66
2023/07/22 03:33:00;;;;;;;16.33;8.80;;;10.80;99.90;;;;;;5104056;28;20006;-65
2023/07/22 03:35:26;;;;;;;;;;;10.80;99.90;;;;;;5103786;28;20047;-65
2023/07/22 03:37:52;;;;;;;17.00;8.75;;;10.80;99.90;;;;;;5103987;28;20264;-66
2023/07/22 03:40:19;;;;;;;;;;;10.90;99.90;;;;;;5100668;28;20043;-66
2023/07/22 03:42:50;;;;;;;13.02;7.93;;;10.80;99.90;;;;;;5104811;28;19916;-66
2023/07/22 03:45:19;;;;;;;15.00;9.13;;;10.90;99.90;;;;;;5090024;28;20118;-65
2023/07/22 03:47:46;;;;;;;18.77;8.77;;;10.90;99.90;;;;;;5104573;28;20036;-64
2023/07/22 03:50:12;;;;;;;16.10;8.52;;;10.90;99.90;;;;;;5103231;28;20043;-65
2023/07/22 03:52:38;;;;;;;;;;;10.90;99.90;;;;;;5101089;28;20100;-64
2023/07/22 03:55:05;;;;;;;13.68;7.68;;;10.90;99.90;;;;;;5107770;28;19915;-65
2023/07/22 03:57:31;;;;;;;15.57;8.93;;;10.90;99.90;;;;;;5108666;27;20051;-64
2023/07/22 03:59:57;;;;;;;13.32;8.30;;;11.00;99.90;;;;;;5103317;28;20044;-68
2023/07/22 04:02:23;;;;;;;13.60;8.35;;;11.00;99.90;;;;;;5104967;27;20035;-67
2023/07/22 04:04:50;;;;;;;16.10;8.90;;;11.00;99.90;;;;;;5108259;28;20036;-66
2023/07/22 04:07:16;;;;;;;17.35;7.75;;;11.00;99.90;;;;;;5107384;28;20044;-66
2023/07/22 04:09:41;;;;;;;;;;;11.00;99.90;;;;;;5105361;28;20062;-68
2023/07/22 04:12:07;;;;;;;14.43;7.72;;;11.00;99.90;;;;;;5098618;28;19919;-64
2023/07/22 04:14:33;;;;;;;;;;;11.10;99.90;;;;;;5102669;28;20036;-65
2023/07/22 04:16:59;;;;;;;13.60;7.85;;;11.20;99.90;;;;;;5104410;28;20307;-68
2023/07/22 04:19:24;;;;;;;12.40;6.72;;;11.20;99.90;;;;;;5106996;28;20038;-68
2023/07/22 04:21:50;;;;;;;11.25;6.60;;;11.30;99.90;;;;;;5107595;28;20036;-65
2023/07/22 04:24:15;;;;;;;;;;;11.40;99.90;;;;;;5108006;28;20042;-67
2023/07/22 04:26:44;;;;;;;12.13;6.93;;;11.40;99.90;;;;;;5106752;28;19927;-65
2023/07/22 04:29:12;;;;;;;11.45;7.53;;;11.50;99.90;;;;;;5104623;28;20039;-65
2023/07/22 04:31:37;;;;;;;13.63;7.45;;;11.70;99.90;;;;;;5094397;28;20065;-66
2023/07/22 04:34:03;;;;;;;;;;;11.70;99.90;;;;;;5103439;28;20044;-66
2023/07/22 04:36:29;;;;;;;9.98;7.18;;;11.70;99.90;;;;;;5107209;28;20556;-68
2023/07/22 04:38:54;;;;;;;;;;;11.70;99.90;;;;;;5103460;27;20042;-67
2023/07/22 04:41:21;;;;;;;12.85;6.72;;;11.80;99.90;;;;;;5101940;28;19919;-65
2023/07/22 04:43:47;;;;;;;10.95;6.78;;;11.90;99.90;;;;;;5104699;28;20031;-64
2023/07/22 04:46:13;;;;;;;12.02;7.05;;;11.90;99.90;;;;;;5104590;28;20051;-64
2023/07/22 04:48:38;;;;;;;;;;;12.00;99.90;;;;;;5105985;28;20035;-65
2023/07/22 04:51:07;;;;;;;17.20;8.07;;;12.10;99.90;;;;;;5104408;28;19939;-65
2023/07/22 04:53:33;;;;;;;15.30;7.90;;;12.00;99.90;;;;;;5086524;28;20388;-66
2023/07/22 04:55:58;;;;;;;;;;;12.10;99.90;;;;;;5085485;28;20065;-64
2023/07/22 04:58:24;;;;;;;13.07;7.40;;;12.10;99.90;;;;;;5106649;28;19915;-66
2023/07/22 05:00:50;;;;;;;;;;;12.20;99.90;;;;;;5097669;28;20052;-66
2023/07/22 05:03:16;;;;;;;15.40;6.90;;;12.30;99.90;;;;;;5084484;27;19927;-66
2023/07/22 05:05:42;;;;;;;;;;;12.40;99.90;;;;;;5086351;28;20044;-64
2023/07/22 05:08:08;;;;;;;10.55;6.63;;;12.40;99.90;;;;;;5086396;28;20368;-65
2023/07/22 05:10:34;;;;;;;13.50;7.22;;;12.50;99.90;;;;;;5080944;28;20492;-65
2023/07/22 05:12:59;;;;;;;;;;;12.60;99.90;;;;;;5084837;28;20036;-65
2023/07/22 05:15:25;;;;;;;10.88;6.65;;;12.60;99.90;;;;;;5085140;28;20291;-66
2023/07/22 05:17:51;;;;;;;;;;;12.70;99.90;;;;;;5077657;28;20059;-65
2023/07/22 05:20:17;;;;;;;10.65;6.85;;;12.70;99.90;;;;;;5082806;28;19965;-65
2023/07/22 05:22:42;;;;;;;;;;;12.70;99.90;;;;;;5080408;28;20115;-66
2023/07/22 05:25:09;;;;;;;15.43;7.43;;;12.80;99.90;;;;;;5077482;28;19919;-65
2023/07/22 05:27:35;;;;;;;13.25;7.65;;;12.70;99.90;;;;;;5086159;28;20527;-65
2023/07/22 05:30:02;;;;;;;12.32;7.55;;;12.70;99.90;;;;;;5078417;28;20041;-66
2023/07/22 05:32:30;;;;;;;12.40;7.22;;;12.80;99.90;;;;;;5095416;28;20122;-66
2023/07/22 05:34:56;;;;;;;11.88;7.55;;;12.80;99.90;;;;;;5106515;28;20042;-66
2023/07/22 05:37:22;;;;;;;;;;;12.80;99.90;;;;;;5104416;28;20043;-65
2023/07/22 05:39:48;;;;;;;11.48;7.68;;;12.80;99.90;;;;;;5100729;28;20707;-66
2023/07/22 05:42:14;;;;;;;11.88;7.15;;;12.90;99.90;;;;;;5101757;28;20547;-65
2023/07/22 05:44:39;;;;;;;;;;;12.90;99.90;;;;;;5104922;28;20566;-66
2023/07/22 05:47:05;;;;;;;12.63;7.43;;;12.90;99.90;;;;;;5106027;28;19976;-65
2023/07/22 05:49:31;;;;;;;;;;;13.00;99.90;;;;;;5100413;28;20067;-65
2023/07/22 05:51:57;;;;;;;11.90;7.53;;;13.00;99.90;;;;;;5105803;28;20014;-65
2023/07/22 05:54:22;;;;;;;;;;;13.20;99.90;;;;;;5103779;28;20062;-65
2023/07/22 05:56:48;;;;;;;11.45;7.28;;;13.30;99.90;;;;;;5106067;28;19919;-65
2023/07/22 05:59:13;;;;;;;14.75;8.00;;;13.40;99.90;;;;;;5105495;27;20039;-67
2023/07/22 06:01:40;;;;;;;;;;;13.50;99.90;;;;;;5089825;28;20040;-66
2023/07/22 06:04:06;;;;;;;12.47;7.70;;;13.60;99.90;;;;;;5084048;28;20014;-67
2023/07/22 06:06:31;;;;;;;13.65;8.15;;;13.80;99.90;;;;;;5084851;28;20131;-66
2023/07/22 06:08:57;;;;;;;;;;;13.90;99.90;;;;;;5083254;28;20047;-68
2023/07/22 06:11:22;;;;;;;12.50;7.28;;;14.00;99.90;;;;;;5075374;28;19995;-67
2023/07/22 06:13:51;;;;;;;;;;;14.00;99.90;;;;;;5085339;28;20040;-65
2023/07/22 06:16:17;;;;;;;14.98;8.00;;;14.00;99.90;;;;;;5082628;28;19973;-66
2023/07/22 06:18:42;;;;;;;;;;;14.10;99.90;;;;;;5083871;28;20048;-67
2023/07/22 06:21:08;;;;;;;12.60;7.45;;;14.10;99.90;;;;;;5084440;28;20597;-66
2023/07/22 06:23:33;;;;;;;;;;;14.20;99.90;;;;;;5079637;28;20389;-66
2023/07/22 06:25:59;;;;;;;12.13;7.80;;;14.30;99.90;;;;;;5079146;28;20470;-66
2023/07/22 06:28:24;;;;;;;;;;;14.40;99.90;;;;;;5076870;28;20499;-64
2023/07/22 06:30:50;;;;;;;13.73;7.68;;;14.40;99.90;;;;;;5081868;28;19973;-65
2023/07/22 06:33:16;;;;;;;;;;;14.50;99.90;;;;;;5085016;28;20028;-69
2023/07/22 06:35:42;;;;;;;15.52;8.18;;;14.60;99.90;;;;;;5080600;28;19965;-67
2023/07/22 06:38:07;;;;;;;11.52;7.75;;;14.80;99.90;;;;;;5083968;28;20046;-70
2023/07/22 06:40:33;;;;;;;;;;;14.80;99.90;;;;;;5079386;28;20160;-65
2023/07/22 06:42:58;;;;;;;15.25;7.63;;;14.90;99.90;;;;;;5083397;28;20022;-66
2023/07/22 06:45:24;;;;;;;;;;;15.10;99.90;;;;;;5079420;28;20079;-66
2023/07/22 06:47:50;;;;;;;12.65;7.55;;;15.20;99.90;;;;;;5078711;28;20302;-66
2023/07/22 06:50:16;;;;;;;13.65;7.95;;;15.30;99.90;;;;;;5069655;28;20086;-67
2023/07/22 06:52:41;;;;;;;;;;;15.50;99.90;;;;;;5063734;28;20097;-66
2023/07/22 06:55:07;;;;;;;13.85;7.53;;;15.50;99.90;;;;;;5081539;28;19923;-66
2023/07/22 06:57:33;;;;;;;;;;;15.50;99.90;;;;;;5085626;28;20044;-66
2023/07/22 06:59:59;;;;;;;13.63;7.82;;;15.40;99.90;;;;;;5083663;28;19922;-66
2023/07/22 07:02:26;;;;;;;13.80;8.02;;;15.40;99.90;;;;;;5068114;28;20515;-65
2023/07/22 07:04:52;;;;;;;14.38;8.02;;;15.50;99.90;;;;;;5076286;28;20054;-68
2023/07/22 07:07:17;;;;;;;;;;;15.70;99.90;;;;;;5081123;28;20048;-66
2023/07/22 07:09:43;;;;;;;17.00;7.93;;;15.70;99.90;;;;;;5078698;28;20453;-67
2023/07/22 07:12:09;;;;;;;11.77;7.22;;;15.80;99.90;;;;;;5074407;28;20032;-65
2023/07/22 07:14:35;;;;;;;13.68;7.63;;;15.80;99.90;;;;;;5080593;28;20044;-69
2023/07/22 07:17:01;;;;;;;;;;;15.80;99.90;;;;;;5081678;28;20052;-67
2023/07/22 07:19:27;;;;;;;12.00;8.07;;;15.80;99.90;;;;;;5084346;28;19955;-67
2023/07/22 07:21:53;;;;;;;13.45;8.50;;;15.90;99.90;;;;;;5084275;28;20461;-67
2023/07/22 07:24:19;;;;;;;;;;;16.40;99.90;;;;;;5083709;28;20048;-69
2023/07/22 07:26:45;;;;;;;16.77;8.98;;;17.00;99.90;;;;;;5084305;28;19920;-69
2023/07/22 07:29:11;;;;;;;;;;;17.40;99.90;;;;;;5087904;28;20043;-67
2023/07/22 07:31:37;;;;;;;18.17;8.45;;;18.20;98.80;;;;;;5085827;28;20306;-68
2023/07/22 07:34:03;;;;;;;17.73;8.80;;;18.90;96.50;;;;;;5087759;28;20119;-66
2023/07/22 07:36:29;;;;;;;12.05;8.13;;;19.50;95.20;;;;;;5086951;28;20132;-69
2023/07/22 07:38:54;;;;;;;14.20;8.90;;;19.70;94.40;;;;;;5087356;28;20032;-68
2023/07/22 07:41:21;;;;;;;13.52;8.27;;;20.00;94.50;;;;;;5077303;28;20138;-68
2023/07/22 07:43:47;;;;;;;16.77;8.25;;;20.40;93.40;;;;;;5083352;28;20151;-70
2023/07/22 07:46:20;;;;;;;18.60;7.40;;;20.00;94.30;;;;;;5085061;28;20123;-65
2023/07/22 07:48:47;;;;;;;11.57;7.30;;;19.40;95.10;;;;;;5073218;28;20028;-66
2023/07/22 07:51:16;;;;;;;11.93;7.47;;;19.10;94.70;;;;;;5077510;28;20125;-68
2023/07/22 07:53:43;;;;;;;11.48;7.13;;;19.70;93.80;;;;;;5084989;28;20048;-70
2023/07/22 07:56:10;;;;;;;13.02;7.28;;;20.30;93.00;;;;;;5083982;28;20040;-64
2023/07/22 07:58:36;;;;;;;10.88;7.10;;;20.30;93.30;;;;;;5076784;28;20127;-64
2023/07/22 08:01:02;;;;;;;12.40;8.02;;;20.40;92.90;;;;;;5083049;28;20028;-65
2023/07/22 08:03:28;;;;;;;14.07;7.63;;;20.10;92.70;;;;;;5076590;28;20660;-70
2023/07/22 08:05:53;;;;;;;12.40;7.35;;;20.10;93.00;;;;;;5078280;28;20093;-67
2023/07/22 08:08:20;;;;;;;14.57;8.02;;;19.60;93.00;;;;;;5081985;28;20036;-65
2023/07/22 08:10:45;;;;;;;12.95;7.82;;;19.30;94.20;;;;;;5083564;28;20715;-67
2023/07/22 08:13:11;;;;;;;11.95;7.65;;;19.90;92.90;;;;;;5083339;28;20032;-65
2023/07/22 08:15:37;;;;;;;14.23;7.97;;;20.50;91.40;;;;;;5085402;28;20093;-69
2023/07/22 08:18:03;;;;;;;11.98;8.18;;;20.50;91.40;;;;;;5080603;28;20506;-67
2023/07/22 08:20:30;;;;;;;11.73;7.90;;;19.90;92.20;;;;;;5077215;28;20047;-65
2023/07/22 08:22:56;;;;;;;13.45;7.63;;;19.60;92.40;;;;;;5082344;28;20123;-70
2023/07/22 08:25:22;;;;;;;13.02;8.30;;;20.00;92.80;;;;;;5087370;28;20126;-67
2023/07/22 08:27:47;;;;;;;17.25;9.35;;;19.90;91.60;;;;;;5084334;28;20805;-66
2023/07/22 08:30:13;;;;;;;11.90;8.63;;;20.00;91.50;;;;;;5085662;28;20553;-66
2023/07/22 08:32:39;;;;;;;15.25;8.68;;;19.40;91.70;;;;;;5078923;28;20044;-70
2023/07/22 08:35:05;;;;;;;18.05;8.55;;;19.10;93.50;;;;;;5085476;28;20063;-65
2023/07/22 08:37:31;;;;;;;13.15;8.70;;;19.00;93.80;;;;;;5082452;28;20107;-64
2023/07/22 08:39:57;;;;;;;13.88;8.65;;;19.10;93.20;;;;;;5083152;28;20072;-68
2023/07/22 08:42:25;;;;;;;13.65;7.78;;;18.90;94.00;;;;;;5086426;28;20506;-69
2023/07/22 08:44:56;;;;;;;14.15;8.57;;;18.70;95.30;;;;;;5087230;28;20063;-67
2023/07/22 08:47:24;;;;;;;13.02;8.10;;;18.60;94.60;;;;;;5082196;28;20125;-66
2023/07/22 08:49:53;;;;;;;13.55;8.07;;;18.50;94.90;;;;;;5083152;28;20036;-68
2023/07/22 08:52:19;;;;;;;13.55;7.82;;;18.40;94.90;;;;;;5084704;28;20051;-66
2023/07/22 08:54:45;;;;;;;14.93;7.97;;;18.80;94.70;;;;;;5086201;28;20121;-67
2023/07/22 08:57:12;;;;;;;13.18;6.57;;;19.10;93.40;;;;;;5087198;28;20510;-67
2023/07/22 08:59:38;;;;;;;17.10;7.25;;;19.40;94.10;;;;;;5080489;28;20046;-67
2023/07/22 09:02:05;;;;;;;10.30;6.65;;;19.40;93.20;;;;;;5079005;28;20242;-67
2023/07/22 09:04:31;;;;;;;9.63;6.50;;;19.60;93.40;;;;;;5085552;28;20047;-66
2023/07/22 09:06:57;;;;;;;12.25;7.43;;;19.60;92.90;;;;;;5085591;28;20054;-67
2023/07/22 09:09:24;;;;;;;19.00;6.50;;;19.30;92.30;;;;;;5085490;28;20527;-64
2023/07/22 09:11:53;;;;;;;12.45;6.30;;;18.90;94.30;;;;;;5083642;28;20035;-67
2023/07/22 09:14:19;;;;;;;11.80;6.50;;;18.90;94.10;;;;;;5086711;28;20058;-65
2023/07/22 09:16:46;;;;;;;10.70;6.30;;;18.70;93.00;;;;;;5086379;28;20040;-66
2023/07/22 09:19:12;;;;;;;10.02;5.85;;;18.40;93.50;;;;;;5083205;28;20059;-67
2023/07/22 09:21:38;;;;;;;10.55;6.05;;;18.30;93.40;;;;;;5083328;28;20046;-67
2023/07/22 09:24:23;;;;;;;;;;;18.40;94.00;;;;;;5086015;28;20606;-66
2023/07/22 09:26:49;;;;;;;9.88;5.43;;;18.50;93.50;;;;;;5084115;28;19962;-67
2023/07/22 09:29:14;;;;;;;;;;;18.30;93.90;;;;;;5086341;28;20047;-70
2023/07/22 09:31:54;;;;;;;9.05;6.05;;;18.30;94.00;;;;;;5085184;28;19920;-68
2023/07/22 09:34:21;;;;;;;12.20;6.30;;;18.20;93.60;;;;;;5083975;28;20040;-66
2023/07/22 09:36:57;;;;;;;8.88;5.65;;;18.20;93.20;;;;;;5084844;28;20560;-67
2023/07/22 09:39:24;;;;;;;26.58;6.10;;;18.10;92.90;;;;;;5078214;28;20047;-66
2023/07/22 09:41:52;;;;;;;9.52;6.35;;;18.00;93.10;;;;;;5083996;28;20043;-66
2023/07/22 09:44:18;;;;;;;9.38;5.45;;;18.10;92.80;;;;;;5085625;28;20495;-66
2023/07/22 09:46:48;;;;;;;11.68;7.10;;;18.00;92.70;;;;;;5085313;28;20047;-66
2023/07/22 09:49:16;;;;;;;10.75;6.43;;;18.10;92.70;;;;;;5068052;28;20067;-66
2023/07/22 09:51:42;;;;;;;9.25;6.35;;;18.00;92.80;;;;;;5079481;28;20059;-65
2023/07/22 09:54:11;;;;;;;;;;;18.00;93.80;;;;;;5084932;28;20040;-66
2023/07/22 09:56:48;;;;;;;8.15;5.78;;;18.20;93.40;;;;;;5079347;28;20244;-67
2023/07/22 09:59:14;;;;;;;11.07;6.60;;;18.20;93.40;;;;;;5081333;28;20055;-68
2023/07/22 10:01:40;;;;;;;;;;;18.20;93.40;;;;;;5077999;28;20040;-66
2023/07/22 10:04:06;;;;;;;9.80;7.23;;;18.40;93.00;;;;;;5079204;28;19920;-67
2023/07/22 10:06:33;;;;;;;11.60;5.93;;;18.40;92.30;;;;;;5084455;28;20101;-67
2023/07/22 10:09:07;;;;;;;10.63;6.68;;;18.50;92.10;;;;;;5081234;28;20113;-64
2023/07/22 10:11:34;;;;;;;12.05;6.35;;;18.50;93.10;;;;;;5074532;28;20078;-65
2023/07/22 10:14:02;;;;;;;8.45;5.80;;;18.50;91.90;;;;;;5080586;28;20067;-66
2023/07/22 10:16:28;;;;;;;6.68;5.03;;;18.40;92.70;;;;;;5084974;28;20047;-67
2023/07/22 10:18:55;;;;;;;8.48;5.65;;;18.60;93.70;;;;;;5082472;28;20040;-70
2023/07/22 10:21:21;;;;;;;8.70;5.30;;;18.70;92.00;;;;;;5069832;28;20521;-66
2023/07/22 10:23:48;;;;;;;8.73;5.05;;;18.50;91.80;;;;;;5085396;28;20039;-67
2023/07/22 10:26:18;;;;;;;8.75;4.93;;;18.40;91.90;;;;;;5086288;28;20067;-67
2023/07/22 10:28:46;;;;;;;7.60;4.90;;;18.60;93.60;;;;;;5085782;28;20051;-69
2023/07/22 10:31:12;;;;;;;6.78;4.80;;;18.90;93.80;;;;;;5081681;28;20036;-65
2023/07/22 10:33:38;;;;;;;8.25;4.95;;;19.00;91.90;;;;;;5078366;28;20101;-66
2023/07/22 10:36:09;;;;;;;7.78;4.68;;;18.70;92.30;;;;;;5071378;28;20079;-66
2023/07/22 10:38:36;;;;;;;9.32;5.22;;;18.80;92.90;;;;;;5077246;28;20427;-65
2023/07/22 10:41:16;;;;;;;15.73;6.07;;;18.80;91.90;;;;;;5080061;28;20040;-66
2023/07/22 10:43:53;;;;;;;6.22;4.15;;;18.70;93.30;;;;;;5084195;28;20047;-66
2023/07/22 10:46:34;;;;;;;5.53;4.13;;;18.80;91.60;;;;;;5085719;28;20070;-66
2023/07/22 10:49:14;;;;;;;5.97;4.20;;;18.90;91.10;;;;;;5079793;28;20051;-66
2023/07/22 10:51:40;;;;;;;9.48;4.85;;;18.80;92.10;;;;;;5076430;28;20054;-65
2023/07/22 10:54:13;;;;;;;7.63;4.50;;;18.80;91.90;;;;;;5077692;28;20046;-66
2023/07/22 10:56:43;;;;;;;6.32;4.32;;;18.90;91.60;;;;;;5073490;28;20056;-66
2023/07/22 10:59:12;;;;;;;6.20;3.92;;;19.00;91.30;;;;;;5075553;28;20043;-66
2023/07/22 11:01:40;;;;;;;5.18;3.35;;;19.00;90.70;;;;;;5077448;28;20550;-66
2023/07/22 11:04:18;;;;;;;5.60;3.70;;;19.00;90.20;;;;;;5074396;28;20048;-67
2023/07/22 11:06:43;;;;;;;6.70;4.32;;;19.00;90.60;;;;;;5083690;28;20495;-65
2023/07/22 11:09:27;;;;;;;;;;;18.80;91.10;;;;;;5076625;28;20039;-65
2023/07/22 11:12:04;;;;;;;5.32;3.97;;;18.70;90.70;;;;;;5077350;28;20376;-66
2023/07/22 11:14:33;;;;;;;5.70;3.20;;;18.90;91.40;;;;;;5079703;28;20044;-66
2023/07/22 11:17:03;;;;;;;7.78;3.60;;;19.00;89.10;;;;;;5073753;28;20097;-66
2023/07/22 11:19:29;;;;;;;4.97;3.45;;;19.10;90.70;;;;;;5080283;28;20113;-66
2023/07/22 11:21:55;;;;;;;;;;;19.30;89.20;;;;;;5084429;28;20442;-65
2023/07/22 11:24:22;;;;;;;7.00;3.53;;;19.40;89.60;;;;;;5090587;28;20551;-66
2023/07/22 11:26:49;;;;;;;5.03;3.33;;;19.40;90.00;;;;;;5080398;28;20056;-67
2023/07/22 11:29:16;;;;;;;6.00;3.75;;;19.30;86.10;;;;;;5085984;28;20051;-65
2023/07/22 11:31:45;;;;;;;6.32;3.75;;;19.20;85.60;;;;;;5085078;28;20048;-64
2023/07/22 11:34:11;;;;;;;4.30;2.88;;;19.10;86.30;;;;;;5077731;28;20163;-66
2023/07/22 11:36:37;;;;;;;15.45;3.78;;;19.10;84.60;;;;;;5078878;28;20051;-67
2023/07/22 11:39:02;;;;;;;;;;;19.20;86.00;;;;;;5083636;28;20048;-65
2023/07/22 11:41:28;;;;;;;4.25;3.00;;;19.20;86.30;;;;;;5079771;28;20467;-66
2023/07/22 11:43:57;;;;;;;4.63;3.22;;;19.40;85.70;;;;;;5082582;28;20060;-66
2023/07/22 11:46:22;;;;;;;7.63;3.42;;;19.50;88.10;;;;;;5083347;28;20490;-66
2023/07/22 11:48:49;;;;;;;;;;;19.60;86.60;;;;;;5079737;28;20495;-64
2023/07/22 11:51:17;;;;;;;3.53;2.50;;;19.50;85.50;;;;;;5084501;28;19920;-66
2023/07/22 11:53:47;;;;;;;3.63;2.97;;;19.30;83.10;;;;;;5084073;28;20122;-66
2023/07/22 11:56:18;;;;;;;3.17;2.40;;;19.10;84.60;;;;;;5080517;28;20044;-66
2023/07/22 11:58:51;;;;;;;4.13;2.65;;;19.10;84.90;;;;;;5083375;28;20036;-64
2023/07/22 12:01:18;;;;;;;5.07;2.88;;;19.10;85.00;;;;;;5080804;28;20490;-64
2023/07/22 12:03:44;;;;;;;3.85;2.60;;;19.10;84.50;;;;;;5078647;28;20059;-65
2023/07/22 12:06:10;;;;;;;4.95;2.40;;;19.10;83.40;;;;;;5070875;28;20047;-65
2023/07/22 12:08:42;;;;;;;3.60;2.45;;;19.10;82.30;;;;;;5085467;28;20115;-67
2023/07/22 12:11:08;;;;;;;3.45;2.10;;;19.40;80.60;;;;;;5083991;28;20047;-66
2023/07/22 12:13:37;;;;;;;;;;;19.70;81.40;;;;;;5090037;28;20044;-64
2023/07/22 12:16:05;;;;;;;3.28;2.15;;;19.70;83.40;;;;;;5088833;28;20818;-64
2023/07/22 12:18:44;;;;;;;2.53;1.95;;;20.00;82.50;;;;;;5082851;28;20046;-66
2023/07/22 12:21:10;;;;;;;3.90;2.40;;;20.00;82.80;;;;;;5083460;28;20060;-66
2023/07/22 12:23:37;;;;;;;3.83;2.15;;;20.10;82.90;;;;;;5085529;28;20044;-67
2023/07/22 12:26:04;;;;;;;4.72;2.58;;;20.30;80.30;;;;;;5083653;28;20453;-65
2023/07/22 12:28:30;;;;;;;2.75;2.00;;;20.30;78.30;;;;;;5084632;28;20113;-64
2023/07/22 12:30:57;;;;;;;3.00;2.20;;;20.00;79.70;;;;;;5077010;28;20507;-66
2023/07/22 12:33:24;;;;;;;3.80;2.15;;;20.10;81.40;;;;;;5081685;28;20135;-66
2023/07/22 12:35:56;;;;;;;4.95;1.90;;;20.30;81.00;;;;;;5075825;28;20043;-66
2023/07/22 12:38:22;;;;;;;3.15;2.00;;;20.30;76.80;;;;;;5078475;28;20190;-67
2023/07/22 12:40:48;;;;;;;2.40;1.90;;;20.10;78.70;;;;;;5077649;28;20834;-64
2023/07/22 12:43:13;;;;;;;4.15;2.63;;;19.80;78.60;;;;;;5083215;28;20544;-66
2023/07/22 12:45:39;;;;;;;4.43;2.40;;;19.60;78.60;;;;;;5077490;28;20035;-66
2023/07/22 12:48:05;;;;;;;3.70;2.45;;;19.60;80.60;;;;;;5086021;28;20069;-66
2023/07/22 12:50:31;;;;;;;;;;;19.60;79.50;;;;;;5081144;28;20047;-66
2023/07/22 12:52:58;;;;;;;3.58;2.30;;;19.70;82.10;;;;;;5075294;28;20023;-67
2023/07/22 12:55:23;;;;;;;3.33;2.17;;;20.00;81.70;;;;;;5086332;28;20515;-66
2023/07/22 12:57:49;;;;;;;;;;;20.10;79.10;;;;;;5085734;28;20047;-66